Latest Weather Observations for Little Bay

IDN60901

Issued at 10:21 pm EST Tuesday 24 May 2022 (issued every 10 minutes, with the page automatically refreshed every 10 minutes)

About weather observations | Map of Sydney area stations | Latest observations for Sydney area | Other Formats
Station Details ID: 066051 Name: LITTLE BAY (THE COAST GOLF CLUB) Lat: -33.98 Lon: 151.25 Height: 22.0 m
Data from the previous 72 hours. | See also: Recent months at Little Bay
Date/Time
EST
Temp
°C
App
Temp
°C
Dew
Point
°C
Rel
Hum
%
Delta-T
°C
Wind Press
QNH
hPa
Press
MSL
hPa
Rain since
9am
mm
Dir  Spd
km/h
Gust
km/h
Spd
kts
Gust
kts
24/10:00pm - - - - - W 11 13 6 7 - - -
24/09:30pm - - - - - W 9 11 5 6 - - -
24/09:00pm - - - - - WNW 9 13 5 7 - - -
24/08:30pm - - - - - WSW 9 11 5 6 - - -
24/08:00pm - - - - - CALM 0 4 0 2 - - -
24/07:30pm - - - - - W 6 7 3 4 - - -
24/07:00pm - - - - - CALM 0 0 0 0 - - -
24/06:30pm - - - - - NE 6 11 3 6 - - -
24/06:00pm - - - - - CALM 0 0 0 0 - - -
24/05:30pm - - - - - CALM 0 0 0 0 - - -
24/05:00pm - - - - - CALM 0 2 0 1 - - -
24/04:30pm - - - - - N 2 4 1 2 - - -
24/04:00pm - - - - - NNW 2 4 1 2 - - -
24/03:30pm - - - - - N 6 7 3 4 - - -
24/03:00pm - - - - - NNW 6 9 3 5 - - -
24/02:30pm - - - - - NW 4 7 2 4 - - -
24/02:00pm - - - - - NNW 6 9 3 5 - - -
24/01:30pm - - - - - WNW 6 7 3 4 - - -
24/01:00pm - - - - - NW 6 9 3 5 - - -
24/12:30pm - - - - - N 7 13 4 7 - - -
24/12:00pm - - - - - SW 11 19 6 10 - - -
24/11:30am - - - - - WNW 7 9 4 5 - - -
24/11:00am - - - - - WNW 7 11 4 6 - - -
24/10:30am - - - - - WNW 9 11 5 6 - - -
24/10:00am - - - - - WNW 11 15 6 8 - - -
24/09:30am - - - - - WNW 11 17 6 9 - - -
24/09:00am - - - - - WNW 9 15 5 8 - - -
24/08:30am - - - - - WNW 9 17 5 9 - - -
24/08:00am - - - - - WNW 13 17 7 9 - - -
24/07:30am - - - - - WNW 13 17 7 9 - - -
24/07:00am - - - - - WNW 11 15 6 8 - - -
24/06:30am - - - - - W 11 15 6 8 - - -
24/06:00am - - - - - WNW 9 15 5 8 - - -
24/05:30am - - - - - WNW 11 15 6 8 - - -
24/05:00am - - - - - W 11 15 6 8 - - -
24/04:30am - - - - - W 11 17 6 9 - - -
24/04:00am - - - - - W 6 7 3 4 - - -
24/03:30am - - - - - NW 6 9 3 5 - - -
24/03:00am - - - - - W 9 11 5 6 - - -
24/02:30am - - - - - SE 17 26 9 14 - - -
24/02:00am - - - - - SE 9 24 5 13 - - -
24/01:30am - - - - - ESE 19 24 10 13 - - -
24/01:00am - - - - - SE 20 24 11 13 - - -
24/12:30am - - - - - SE 28 39 15 21 - - -
24/12:00am - - - - - ESE 17 24 9 13 - - -
 
Date/Time
EST
Temp
°C
App
Temp
°C
Dew
Point
°C
Rel
Hum
%
Delta-T
°C
Wind Press
QNH
hPa
Press
MSL
hPa
Rain since
9am
mm
Dir  Spd
km/h
Gust
km/h
Spd
kts
Gust
kts
23/11:30pm - - - - - ESE 15 22 8 12 - - -
23/11:00pm - - - - - ESE 15 20 8 11 - - -
23/10:30pm - - - - - ESE 15 22 8 12 - - -
23/10:00pm - - - - - SE 17 24 9 13 - - -
23/09:30pm - - - - - SSE 17 22 9 12 - - -
23/09:00pm - - - - - SSE 19 26 10 14 - - -
23/08:30pm - - - - - SSE 20 28 11 15 - - -
23/08:00pm - - - - - SSE 22 32 12 17 - - -
23/07:30pm - - - - - SSE 19 22 10 12 - - -
23/07:00pm - - - - - SE 13 17 7 9 - - -
23/06:30pm - - - - - SE 6 11 3 6 - - -
23/06:00pm - - - - - S 11 15 6 8 - - -
23/05:30pm - - - - - S 11 17 6 9 - - -
23/05:00pm - - - - - S 9 13 5 7 - - -
23/04:30pm - - - - - SE 13 17 7 9 - - -
23/04:00pm - - - - - ESE 6 9 3 5 - - -
23/03:30pm - - - - - E 6 11 3 6 - - -
23/03:00pm - - - - - NE 11 17 6 9 - - -
23/02:30pm - - - - - E 22 30 12 16 - - -
23/02:00pm - - - - - E 22 30 12 16 - - -
23/01:30pm - - - - - E 19 24 10 13 - - -
23/01:00pm - - - - - E 19 24 10 13 - - -
23/12:30pm - - - - - ESE 20 26 11 14 - - -
23/12:00pm - - - - - ESE 17 20 9 11 - - -
23/11:30am - - - - - SE 9 19 5 10 - - -
23/11:00am - - - - - W 11 20 6 11 - - -
23/10:30am - - - - - WNW 9 13 5 7 - - -
23/10:00am - - - - - NW 11 22 6 12 - - -
23/09:30am - - - - - WNW 7 15 4 8 - - -
23/09:00am - - - - - W 11 15 6 8 - - -
23/08:30am - - - - - SW 13 19 7 10 - - -
23/08:00am - - - - - W 15 22 8 12 - - -
23/07:30am - - - - - W 15 20 8 11 - - -
23/07:00am - - - - - W 9 13 5 7 - - -
23/06:30am - - - - - W 13 17 7 9 - - -
23/06:00am - - - - - WNW 13 17 7 9 - - -
23/05:30am - - - - - W 15 20 8 11 - - -
23/05:00am - - - - - W 17 22 9 12 - - -
23/04:30am - - - - - WNW 11 17 6 9 - - -
23/04:00am - - - - - NW 11 17 6 9 - - -
23/03:30am - - - - - WNW 13 17 7 9 - - -
23/03:00am - - - - - W 9 13 5 7 - - -
23/02:30am - - - - - WNW 11 24 6 13 - - -
23/02:00am - - - - - WNW 9 15 5 8 - - -
23/01:30am - - - - - W 7 11 4 6 - - -
23/01:00am - - - - - SW 11 19 6 10 - - -
23/12:30am - - - - - SSW 7 11 4 6 - - -
23/12:00am - - - - - SSW 13 24 7 13 - - -
 
Date/Time
EST
Temp
°C
App
Temp
°C
Dew
Point
°C
Rel
Hum
%
Delta-T
°C
Wind Press
QNH
hPa
Press
MSL
hPa
Rain since
9am
mm
Dir  Spd
km/h
Gust
km/h
Spd
kts
Gust
kts
22/11:30pm - - - - - S 17 24 9 13 - - -
22/11:00pm - - - - - S 13 24 7 13 - - -
22/10:30pm - - - - - WSW 9 13 5 7 - - -
22/10:00pm - - - - - WSW 9 17 5 9 - - -
22/09:30pm - - - - - WSW 11 17 6 9 - - -
22/09:00pm - - - - - SW 19 33 10 18 - - -
22/08:30pm - - - - - SW 15 24 8 13 - - -
22/08:00pm - - - - - SSW 22 39 12 21 - - -
22/07:30pm - - - - - SW 17 28 9 15 - - -
22/07:00pm - - - - - SSW 13 28 7 15 - - -
22/06:30pm - - - - - SSW 17 39 9 21 - - -
22/06:00pm - - - - - ESE 15 22 8 12 - - -
22/05:30pm - - - - - ESE 17 24 9 13 - - -
22/05:00pm - - - - - ESE 19 24 10 13 - - -
22/04:30pm - - - - - SE 20 26 11 14 - - -
22/04:00pm - - - - - SE 20 30 11 16 - - -
22/03:30pm - - - - - SE 22 30 12 16 - - -
22/03:00pm - - - - - SE 22 32 12 17 - - -
22/02:30pm - - - - - SE 20 28 11 15 - - -
22/02:00pm - - - - - SE 22 28 12 15 - - -
22/01:30pm - - - - - SE 20 26 11 14 - - -
22/01:00pm - - - - - SSE 22 28 12 15 - - -
22/12:30pm - - - - - SE 22 28 12 15 - - -
22/12:00pm - - - - - SE 26 33 14 18 - - -
22/11:30am - - - - - SE 24 30 13 16 - - -
22/11:00am - - - - - SE 22 32 12 17 - - -
22/10:30am - - - - - SSE 22 28 12 15 - - -
22/10:00am - - - - - SE 24 35 13 19 - - -
22/09:30am - - - - - SSE 24 30 13 16 - - -
22/09:00am - - - - - SE 22 30 12 16 - - -
22/08:30am - - - - - SSE 24 32 13 17 - - -
22/08:00am - - - - - SE 26 33 14 18 - - -
22/07:30am - - - - - SE 24 32 13 17 - - -
22/07:00am - - - - - SE 24 32 13 17 - - -
22/06:30am - - - - - SE 20 26 11 14 - - -
22/06:00am - - - - - SE 22 28 12 15 - - -
22/05:30am - - - - - SE 22 28 12 15 - - -
22/05:00am - - - - - SE 20 28 11 15 - - -
22/04:30am - - - - - SE 22 28 12 15 - - -
22/04:00am - - - - - SE 20 26 11 14 - - -
22/03:30am - - - - - SE 19 26 10 14 - - -
22/03:00am - - - - - SE 19 26 10 14 - - -
22/02:30am - - - - - SSW 6 19 3 10 - - -
22/02:00am - - - - - SSE 7 13 4 7 - - -
22/01:30am - - - - - ESE 13 17 7 9 - - -
22/01:00am - - - - - ESE 19 24 10 13 - - -
22/12:30am - - - - - ESE 20 28 11 15 - - -
22/12:00am - - - - - ESE 20 28 11 15 - - -
 
Date/Time
EST
Temp
°C
App
Temp
°C
Dew
Point
°C
Rel
Hum
%
Delta-T
°C
Wind Press
QNH
hPa
Press
MSL
hPa
Rain since
9am
mm
Dir  Spd
km/h
Gust
km/h
Spd
kts
Gust
kts
21/11:30pm - - - - - SE 20 26 11 14 - - -
21/11:00pm - - - - - ESE 22 32 12 17 - - -
21/10:30pm - - - - - ESE 24 32 13 17 - - -

Latest Capital City Observations: Canberra | Sydney | Melbourne | Brisbane | Adelaide | Perth | Hobart | Darwin

Other formats

Comma delimited format used in spreadsheet applications
http://www.bom.gov.au/fwo/IDN60901/IDN60901.94780.axf

JavaScript Object Notation format (JSON) in row-major order
http://www.bom.gov.au/fwo/IDN60901/IDN60901.94780.json

Data quality

Most of these data are generated automatically and are frequently updated. Quality checks on data are not normally performed. It is possible for incorrect values to appear. Refer to information at About Latest Weather Observations and please check the disclaimer before using these data.